sensor_id;sensor_type;location;lat;lon;timestamp;temperature;humidity
22337;DHT22;14992;50.844;4.418;2023-09-30T00:01:15;15.80;99.90
22337;DHT22;14992;50.844;4.418;2023-09-30T00:03:46;15.80;99.90
22337;DHT22;14992;50.844;4.418;2023-09-30T00:06:15;15.90;99.90
22337;DHT22;14992;50.844;4.418;2023-09-30T00:08:44;15.80;99.90
22337;DHT22;14992;50.844;4.418;2023-09-30T00:11:15;15.80;99.90
22337;DHT22;14992;50.844;4.418;2023-09-30T00:13:44;15.80;99.90
22337;DHT22;14992;50.844;4.418;2023-09-30T00:16:18;15.80;99.90
22337;DHT22;14992;50.844;4.418;2023-09-30T00:18:47;15.70;99.90
22337;DHT22;14992;50.844;4.418;2023-09-30T00:21:16;15.70;99.90
22337;DHT22;14992;50.844;4.418;2023-09-30T00:23:45;15.60;99.90
22337;DHT22;14992;50.844;4.418;2023-09-30T00:26:14;15.70;99.90
22337;DHT22;14992;50.844;4.418;2023-09-30T00:28:46;15.60;99.90
22337;DHT22;14992;50.844;4.418;2023-09-30T00:31:15;15.60;99.90
22337;DHT22;14992;50.844;4.418;2023-09-30T00:33:45;15.60;99.90
22337;DHT22;14992;50.844;4.418;2023-09-30T00:36:14;15.60;99.90
22337;DHT22;14992;50.844;4.418;2023-09-30T00:38:45;15.60;99.90
22337;DHT22;14992;50.844;4.418;2023-09-30T00:41:13;15.50;99.90
22337;DHT22;14992;50.844;4.418;2023-09-30T00:43:42;15.60;99.90
22337;DHT22;14992;50.844;4.418;2023-09-30T00:46:21;15.60;99.90
22337;DHT22;14992;50.844;4.418;2023-09-30T00:48:57;15.70;99.90
22337;DHT22;14992;50.844;4.418;2023-09-30T00:51:27;15.60;99.90
22337;DHT22;14992;50.844;4.418;2023-09-30T00:53:58;15.60;99.90
22337;DHT22;14992;50.844;4.418;2023-09-30T00:56:29;15.60;99.90
22337;DHT22;14992;50.844;4.418;2023-09-30T00:58:59;15.70;99.90
22337;DHT22;14992;50.844;4.418;2023-09-30T01:01:28;15.80;99.90
22337;DHT22;14992;50.844;4.418;2023-09-30T01:04:00;15.80;99.90
22337;DHT22;14992;50.844;4.418;2023-09-30T01:06:31;15.80;99.90
22337;DHT22;14992;50.844;4.418;2023-09-30T01:09:00;15.80;99.90
22337;DHT22;14992;50.844;4.418;2023-09-30T01:11:29;15.90;99.90
22337;DHT22;14992;50.844;4.418;2023-09-30T01:13:58;15.90;99.90
22337;DHT22;14992;50.844;4.418;2023-09-30T01:16:27;15.80;99.90
22337;DHT22;14992;50.844;4.418;2023-09-30T01:18:56;15.80;99.90
22337;DHT22;14992;50.844;4.418;2023-09-30T01:21:27;15.80;99.90
22337;DHT22;14992;50.844;4.418;2023-09-30T01:23:57;15.70;99.90
22337;DHT22;14992;50.844;4.418;2023-09-30T01:26:26;15.60;99.90
22337;DHT22;14992;50.844;4.418;2023-09-30T01:28:56;15.60;99.90
22337;DHT22;14992;50.844;4.418;2023-09-30T01:31:25;15.70;99.90
22337;DHT22;14992;50.844;4.418;2023-09-30T01:33:54;15.70;99.90
22337;DHT22;14992;50.844;4.418;2023-09-30T01:36:24;15.70;99.90
22337;DHT22;14992;50.844;4.418;2023-09-30T01:38:53;15.70;99.90
22337;DHT22;14992;50.844;4.418;2023-09-30T01:41:23;15.70;99.90
22337;DHT22;14992;50.844;4.418;2023-09-30T01:43:52;15.70;99.90
22337;DHT22;14992;50.844;4.418;2023-09-30T01:46:21;15.60;99.90
22337;DHT22;14992;50.844;4.418;2023-09-30T01:48:52;15.60;99.90
22337;DHT22;14992;50.844;4.418;2023-09-30T01:51:21;15.60;99.90
22337;DHT22;14992;50.844;4.418;2023-09-30T01:53:51;15.60;99.90
22337;DHT22;14992;50.844;4.418;2023-09-30T01:56:19;15.70;99.90
22337;DHT22;14992;50.844;4.418;2023-09-30T01:58:50;15.60;99.90
22337;DHT22;14992;50.844;4.418;2023-09-30T02:01:18;15.50;99.90
22337;DHT22;14992;50.844;4.418;2023-09-30T02:03:47;15.50;99.90
22337;DHT22;14992;50.844;4.418;2023-09-30T02:06:17;15.60;99.90
22337;DHT22;14992;50.844;4.418;2023-09-30T02:08:45;15.60;99.90
22337;DHT22;14992;50.844;4.418;2023-09-30T02:11:15;15.50;99.90
22337;DHT22;14992;50.844;4.418;2023-09-30T02:13:44;15.50;99.90
22337;DHT22;14992;50.844;4.418;2023-09-30T02:16:14;15.50;99.90
22337;DHT22;14992;50.844;4.418;2023-09-30T02:18:43;15.50;99.90
22337;DHT22;14992;50.844;4.418;2023-09-30T02:21:13;15.50;99.90
22337;DHT22;14992;50.844;4.418;2023-09-30T02:23:42;15.50;99.90
22337;DHT22;14992;50.844;4.418;2023-09-30T02:26:15;15.50;99.90
22337;DHT22;14992;50.844;4.418;2023-09-30T02:28:44;15.50;99.90
22337;DHT22;14992;50.844;4.418;2023-09-30T02:31:14;15.50;99.90
22337;DHT22;14992;50.844;4.418;2023-09-30T02:33:45;15.40;99.90
22337;DHT22;14992;50.844;4.418;2023-09-30T02:36:14;15.30;99.90
22337;DHT22;14992;50.844;4.418;2023-09-30T02:38:43;15.30;99.90
22337;DHT22;14992;50.844;4.418;2023-09-30T02:41:16;15.20;99.90
22337;DHT22;14992;50.844;4.418;2023-09-30T02:43:45;15.10;99.90
22337;DHT22;14992;50.844;4.418;2023-09-30T02:46:15;15.10;99.90
22337;DHT22;14992;50.844;4.418;2023-09-30T02:48:44;15.10;99.90
22337;DHT22;14992;50.844;4.418;2023-09-30T02:51:13;15.10;99.90
22337;DHT22;14992;50.844;4.418;2023-09-30T02:53:42;15.10;99.90
22337;DHT22;14992;50.844;4.418;2023-09-30T02:56:10;15.10;99.90
22337;DHT22;14992;50.844;4.418;2023-09-30T02:58:39;15.10;99.90
22337;DHT22;14992;50.844;4.418;2023-09-30T03:01:08;15.20;99.90
22337;DHT22;14992;50.844;4.418;2023-09-30T03:03:41;15.20;99.90
22337;DHT22;14992;50.844;4.418;2023-09-30T03:06:11;15.20;99.90
22337;DHT22;14992;50.844;4.418;2023-09-30T03:08:42;15.20;99.90
22337;DHT22;14992;50.844;4.418;2023-09-30T03:11:10;15.20;99.90
22337;DHT22;14992;50.844;4.418;2023-09-30T03:13:40;15.20;99.90
22337;DHT22;14992;50.844;4.418;2023-09-30T03:16:10;15.10;99.90
22337;DHT22;14992;50.844;4.418;2023-09-30T03:18:38;15.10;99.90
22337;DHT22;14992;50.844;4.418;2023-09-30T03:21:14;15.10;99.90
22337;DHT22;14992;50.844;4.418;2023-09-30T03:23:43;15.10;99.90
22337;DHT22;14992;50.844;4.418;2023-09-30T03:26:12;15.10;99.90
22337;DHT22;14992;50.844;4.418;2023-09-30T03:28:41;15.10;99.90
22337;DHT22;14992;50.844;4.418;2023-09-30T03:31:10;15.20;99.90
22337;DHT22;14992;50.844;4.418;2023-09-30T03:33:38;15.20;99.90
22337;DHT22;14992;50.844;4.418;2023-09-30T03:36:09;15.20;99.90
22337;DHT22;14992;50.844;4.418;2023-09-30T03:38:40;15.30;99.90
22337;DHT22;14992;50.844;4.418;2023-09-30T03:41:09;15.30;99.90
22337;DHT22;14992;50.844;4.418;2023-09-30T03:43:41;15.30;99.90
22337;DHT22;14992;50.844;4.418;2023-09-30T03:46:09;15.30;99.90
22337;DHT22;14992;50.844;4.418;2023-09-30T03:48:39;15.30;99.90
22337;DHT22;14992;50.844;4.418;2023-09-30T03:51:09;15.20;99.90
22337;DHT22;14992;50.844;4.418;2023-09-30T03:53:43;15.20;99.90
22337;DHT22;14992;50.844;4.418;2023-09-30T03:56:12;15.20;99.90
22337;DHT22;14992;50.844;4.418;2023-09-30T03:58:42;15.20;99.90
22337;DHT22;14992;50.844;4.418;2023-09-30T04:01:12;15.20;99.90
22337;DHT22;14992;50.844;4.418;2023-09-30T04:03:42;15.10;99.90
22337;DHT22;14992;50.844;4.418;2023-09-30T04:06:11;15.10;99.90
22337;DHT22;14992;50.844;4.418;2023-09-30T04:08:40;15.10;99.90
22337;DHT22;14992;50.844;4.418;2023-09-30T04:11:12;15.10;99.90
22337;DHT22;14992;50.844;4.418;2023-09-30T04:13:47;15.10;99.90
22337;DHT22;14992;50.844;4.418;2023-09-30T04:16:17;15.10;99.90
22337;DHT22;14992;50.844;4.418;2023-09-30T04:18:47;15.10;99.90
22337;DHT22;14992;50.844;4.418;2023-09-30T04:21:17;15.10;99.90
22337;DHT22;14992;50.844;4.418;2023-09-30T04:23:46;15.10;99.90
22337;DHT22;14992;50.844;4.418;2023-09-30T04:26:17;15.10;99.90
22337;DHT22;14992;50.844;4.418;2023-09-30T04:28:47;15.10;99.90
22337;DHT22;14992;50.844;4.418;2023-09-30T04:31:16;15.00;99.90
22337;DHT22;14992;50.844;4.418;2023-09-30T04:33:45;15.00;99.90
22337;DHT22;14992;50.844;4.418;2023-09-30T04:36:14;14.90;99.90
22337;DHT22;14992;50.844;4.418;2023-09-30T04:38:43;14.80;99.90
22337;DHT22;14992;50.844;4.418;2023-09-30T04:41:12;14.90;99.90
22337;DHT22;14992;50.844;4.418;2023-09-30T04:43:44;14.80;99.90
22337;DHT22;14992;50.844;4.418;2023-09-30T04:46:14;14.90;99.90
22337;DHT22;14992;50.844;4.418;2023-09-30T04:48:46;15.00;99.90
22337;DHT22;14992;50.844;4.418;2023-09-30T04:51:16;15.00;99.90
22337;DHT22;14992;50.844;4.418;2023-09-30T04:53:46;15.00;99.90
22337;DHT22;14992;50.844;4.418;2023-09-30T04:56:15;15.00;99.90
22337;DHT22;14992;50.844;4.418;2023-09-30T04:58:45;15.10;99.90
22337;DHT22;14992;50.844;4.418;2023-09-30T05:01:14;15.10;99.90
22337;DHT22;14992;50.844;4.418;2023-09-30T05:03:46;15.00;99.90
22337;DHT22;14992;50.844;4.418;2023-09-30T05:06:17;15.00;99.90
22337;DHT22;14992;50.844;4.418;2023-09-30T05:08:45;15.00;99.90
22337;DHT22;14992;50.844;4.418;2023-09-30T05:11:15;15.00;99.90
22337;DHT22;14992;50.844;4.418;2023-09-30T05:13:45;15.00;99.90
22337;DHT22;14992;50.844;4.418;2023-09-30T05:16:14;15.00;99.90
22337;DHT22;14992;50.844;4.418;2023-09-30T05:18:44;15.00;99.90
22337;DHT22;14992;50.844;4.418;2023-09-30T05:21:13;15.00;99.90
22337;DHT22;14992;50.844;4.418;2023-09-30T05:23:43;15.00;99.90
22337;DHT22;14992;50.844;4.418;2023-09-30T05:26:12;15.00;99.90
22337;DHT22;14992;50.844;4.418;2023-09-30T05:28:40;14.90;99.90
22337;DHT22;14992;50.844;4.418;2023-09-30T05:31:11;14.90;99.90
22337;DHT22;14992;50.844;4.418;2023-09-30T05:33:40;14.90;99.90
22337;DHT22;14992;50.844;4.418;2023-09-30T05:36:09;14.80;99.90
22337;DHT22;14992;50.844;4.418;2023-09-30T05:38:37;14.80;99.90
22337;DHT22;14992;50.844;4.418;2023-09-30T05:41:06;14.90;99.90
22337;DHT22;14992;50.844;4.418;2023-09-30T05:43:35;14.90;99.90
22337;DHT22;14992;50.844;4.418;2023-09-30T05:46:05;14.90;99.90
22337;DHT22;14992;50.844;4.418;2023-09-30T05:48:36;14.90;99.90
22337;DHT22;14992;50.844;4.418;2023-09-30T05:51:06;15.00;99.90
22337;DHT22;14992;50.844;4.418;2023-09-30T05:53:35;14.90;99.90
22337;DHT22;14992;50.844;4.418;2023-09-30T05:56:05;14.90;99.90
22337;DHT22;14992;50.844;4.418;2023-09-30T05:58:34;14.80;99.90
22337;DHT22;14992;50.844;4.418;2023-09-30T06:01:07;14.90;99.90
22337;DHT22;14992;50.844;4.418;2023-09-30T06:03:39;14.80;99.90
22337;DHT22;14992;50.844;4.418;2023-09-30T06:06:11;14.80;99.90
22337;DHT22;14992;50.844;4.418;2023-09-30T06:08:42;14.80;99.90
22337;DHT22;14992;50.844;4.418;2023-09-30T06:11:16;14.80;99.90
22337;DHT22;14992;50.844;4.418;2023-09-30T06:13:46;14.80;99.90
22337;DHT22;14992;50.844;4.418;2023-09-30T06:16:16;14.90;99.90
22337;DHT22;14992;50.844;4.418;2023-09-30T06:18:46;14.80;99.90
22337;DHT22;14992;50.844;4.418;2023-09-30T06:21:16;14.80;99.90
22337;DHT22;14992;50.844;4.418;2023-09-30T06:23:48;14.80;99.90
22337;DHT22;14992;50.844;4.418;2023-09-30T06:26:19;14.80;99.90
22337;DHT22;14992;50.844;4.418;2023-09-30T06:28:49;14.90;99.90
22337;DHT22;14992;50.844;4.418;2023-09-30T06:31:18;14.90;99.90
22337;DHT22;14992;50.844;4.418;2023-09-30T06:33:48;14.90;99.90
22337;DHT22;14992;50.844;4.418;2023-09-30T06:36:17;15.00;99.90
22337;DHT22;14992;50.844;4.418;2023-09-30T06:38:46;15.00;99.90
22337;DHT22;14992;50.844;4.418;2023-09-30T06:41:18;15.00;99.90
22337;DHT22;14992;50.844;4.418;2023-09-30T06:43:47;15.20;99.90
22337;DHT22;14992;50.844;4.418;2023-09-30T06:46:16;15.20;99.90
22337;DHT22;14992;50.844;4.418;2023-09-30T06:48:45;15.30;99.90
22337;DHT22;14992;50.844;4.418;2023-09-30T06:51:15;15.30;99.90
22337;DHT22;14992;50.844;4.418;2023-09-30T06:53:45;15.30;99.90
22337;DHT22;14992;50.844;4.418;2023-09-30T06:56:14;15.40;99.90
22337;DHT22;14992;50.844;4.418;2023-09-30T06:58:43;15.40;99.90
22337;DHT22;14992;50.844;4.418;2023-09-30T07:01:15;15.40;99.90
22337;DHT22;14992;50.844;4.418;2023-09-30T07:03:45;15.40;99.90
22337;DHT22;14992;50.844;4.418;2023-09-30T07:06:23;15.40;99.90
22337;DHT22;14992;50.844;4.418;2023-09-30T07:08:51;15.50;99.90
22337;DHT22;14992;50.844;4.418;2023-09-30T07:11:27;15.50;99.90
22337;DHT22;14992;50.844;4.418;2023-09-30T07:13:56;15.60;99.90
22337;DHT22;14992;50.844;4.418;2023-09-30T07:16:25;15.60;99.90
22337;DHT22;14992;50.844;4.418;2023-09-30T07:18:54;15.60;99.90
22337;DHT22;14992;50.844;4.418;2023-09-30T07:21:25;15.60;99.90
22337;DHT22;14992;50.844;4.418;2023-09-30T07:23:54;15.60;99.90
22337;DHT22;14992;50.844;4.418;2023-09-30T07:26:24;15.70;99.90
22337;DHT22;14992;50.844;4.418;2023-09-30T07:28:55;15.70;99.90
22337;DHT22;14992;50.844;4.418;2023-09-30T07:31:26;15.80;99.90
22337;DHT22;14992;50.844;4.418;2023-09-30T07:33:54;15.90;99.90
22337;DHT22;14992;50.844;4.418;2023-09-30T07:36:25;15.90;99.90
22337;DHT22;14992;50.844;4.418;2023-09-30T07:38:53;15.80;99.90
22337;DHT22;14992;50.844;4.418;2023-09-30T07:41:23;15.90;99.90
22337;DHT22;14992;50.844;4.418;2023-09-30T07:43:52;15.90;99.90
22337;DHT22;14992;50.844;4.418;2023-09-30T07:46:21;16.00;99.90
22337;DHT22;14992;50.844;4.418;2023-09-30T07:48:50;15.90;99.90
22337;DHT22;14992;50.844;4.418;2023-09-30T07:51:20;15.90;99.90
22337;DHT22;14992;50.844;4.418;2023-09-30T07:53:50;15.90;99.90
22337;DHT22;14992;50.844;4.418;2023-09-30T07:56:20;15.90;99.90
22337;DHT22;14992;50.844;4.418;2023-09-30T07:58:49;15.90;99.90
22337;DHT22;14992;50.844;4.418;2023-09-30T08:01:18;16.00;99.90
22337;DHT22;14992;50.844;4.418;2023-09-30T08:03:47;16.20;99.90
22337;DHT22;14992;50.844;4.418;2023-09-30T08:06:16;16.20;99.90
22337;DHT22;14992;50.844;4.418;2023-09-30T08:08:45;16.30;99.90
22337;DHT22;14992;50.844;4.418;2023-09-30T08:11:17;16.40;99.90
22337;DHT22;14992;50.844;4.418;2023-09-30T08:13:48;16.50;99.90
22337;DHT22;14992;50.844;4.418;2023-09-30T08:16:16;16.50;99.90
22337;DHT22;14992;50.844;4.418;2023-09-30T08:18:48;16.60;99.90
22337;DHT22;14992;50.844;4.418;2023-09-30T08:21:17;16.60;99.90
22337;DHT22;14992;50.844;4.418;2023-09-30T08:23:46;16.70;99.90
22337;DHT22;14992;50.844;4.418;2023-09-30T08:26:16;16.80;99.90
22337;DHT22;14992;50.844;4.418;2023-09-30T08:28:45;16.90;99.90
22337;DHT22;14992;50.844;4.418;2023-09-30T08:31:14;16.90;99.90
22337;DHT22;14992;50.844;4.418;2023-09-30T08:33:42;16.80;99.90
22337;DHT22;14992;50.844;4.418;2023-09-30T08:36:13;16.70;99.90
22337;DHT22;14992;50.844;4.418;2023-09-30T08:38:42;16.80;99.90
22337;DHT22;14992;50.844;4.418;2023-09-30T08:41:24;17.00;99.90
22337;DHT22;14992;50.844;4.418;2023-09-30T08:43:55;17.10;99.90
22337;DHT22;14992;50.844;4.418;2023-09-30T08:46:30;17.10;99.90
22337;DHT22;14992;50.844;4.418;2023-09-30T08:49:02;17.20;99.90
22337;DHT22;14992;50.844;4.418;2023-09-30T08:51:32;17.30;99.90
22337;DHT22;14992;50.844;4.418;2023-09-30T08:54:01;17.40;99.90
22337;DHT22;14992;50.844;4.418;2023-09-30T08:56:32;17.50;99.90
22337;DHT22;14992;50.844;4.418;2023-09-30T08:59:02;17.60;99.90
22337;DHT22;14992;50.844;4.418;2023-09-30T09:01:31;17.60;99.90
22337;DHT22;14992;50.844;4.418;2023-09-30T09:04:00;17.70;99.90
22337;DHT22;14992;50.844;4.418;2023-09-30T09:06:31;17.70;99.90
22337;DHT22;14992;50.844;4.418;2023-09-30T09:09:13;17.80;99.90
22337;DHT22;14992;50.844;4.418;2023-09-30T09:11:44;17.80;99.90
22337;DHT22;14992;50.844;4.418;2023-09-30T09:14:13;17.90;99.90
22337;DHT22;14992;50.844;4.418;2023-09-30T09:16:52;17.90;99.90
22337;DHT22;14992;50.844;4.418;2023-09-30T09:19:21;18.10;99.90
22337;DHT22;14992;50.844;4.418;2023-09-30T09:21:54;18.00;99.90
22337;DHT22;14992;50.844;4.418;2023-09-30T09:24:28;17.90;99.90
22337;DHT22;14992;50.844;4.418;2023-09-30T09:27:11;17.90;99.90
22337;DHT22;14992;50.844;4.418;2023-09-30T09:29:44;17.90;99.90
22337;DHT22;14992;50.844;4.418;2023-09-30T09:32:15;17.90;99.90
22337;DHT22;14992;50.844;4.418;2023-09-30T09:34:44;17.90;99.90
22337;DHT22;14992;50.844;4.418;2023-09-30T09:37:15;17.90;99.90
22337;DHT22;14992;50.844;4.418;2023-09-30T09:39:52;18.00;99.90
22337;DHT22;14992;50.844;4.418;2023-09-30T09:42:29;18.10;99.90
22337;DHT22;14992;50.844;4.418;2023-09-30T09:45:01;18.20;99.90
22337;DHT22;14992;50.844;4.418;2023-09-30T09:48:09;18.30;99.90
22337;DHT22;14992;50.844;4.418;2023-09-30T09:50:39;18.20;99.90
22337;DHT22;14992;50.844;4.418;2023-09-30T09:53:12;18.30;99.90
22337;DHT22;14992;50.844;4.418;2023-09-30T09:55:43;18.40;99.90
22337;DHT22;14992;50.844;4.418;2023-09-30T09:58:14;18.50;99.90
22337;DHT22;14992;50.844;4.418;2023-09-30T10:00:43;18.50;99.90
22337;DHT22;14992;50.844;4.418;2023-09-30T10:03:12;18.50;99.90
22337;DHT22;14992;50.844;4.418;2023-09-30T10:05:42;18.40;99.90
22337;DHT22;14992;50.844;4.418;2023-09-30T10:08:15;18.40;99.90
22337;DHT22;14992;50.844;4.418;2023-09-30T10:10:46;18.50;99.90
22337;DHT22;14992;50.844;4.418;2023-09-30T10:13:53;18.40;99.90
22337;DHT22;14992;50.844;4.418;2023-09-30T10:16:47;18.50;99.90
22337;DHT22;14992;50.844;4.418;2023-09-30T10:19:19;18.60;99.90
22337;DHT22;14992;50.844;4.418;2023-09-30T10:22:21;18.60;99.90
22337;DHT22;14992;50.844;4.418;2023-09-30T10:24:55;18.70;99.90
22337;DHT22;14992;50.844;4.418;2023-09-30T10:27:32;18.80;99.90
22337;DHT22;14992;50.844;4.418;2023-09-30T10:30:11;18.80;99.90
22337;DHT22;14992;50.844;4.418;2023-09-30T10:33:08;18.80;99.90
22337;DHT22;14992;50.844;4.418;2023-09-30T10:35:45;18.90;99.90
22337;DHT22;14992;50.844;4.418;2023-09-30T10:38:37;18.90;99.90
22337;DHT22;14992;50.844;4.418;2023-09-30T10:41:08;18.90;99.90
22337;DHT22;14992;50.844;4.418;2023-09-30T10:43:39;19.00;99.90
22337;DHT22;14992;50.844;4.418;2023-09-30T10:46:32;19.10;99.90
22337;DHT22;14992;50.844;4.418;2023-09-30T10:49:29;19.20;99.90
22337;DHT22;14992;50.844;4.418;2023-09-30T10:52:00;19.30;99.90
22337;DHT22;14992;50.844;4.418;2023-09-30T10:54:31;19.40;99.90
22337;DHT22;14992;50.844;4.418;2023-09-30T10:57:00;19.30;99.90
22337;DHT22;14992;50.844;4.418;2023-09-30T10:59:31;19.20;99.90
22337;DHT22;14992;50.844;4.418;2023-09-30T11:02:18;19.30;99.90
22337;DHT22;14992;50.844;4.418;2023-09-30T11:04:48;19.40;99.90
22337;DHT22;14992;50.844;4.418;2023-09-30T11:07:22;19.60;99.90
22337;DHT22;14992;50.844;4.418;2023-09-30T11:09:53;19.60;99.90
22337;DHT22;14992;50.844;4.418;2023-09-30T11:12:22;19.70;99.90
22337;DHT22;14992;50.844;4.418;2023-09-30T11:14:59;19.80;99.90
22337;DHT22;14992;50.844;4.418;2023-09-30T11:17:30;19.70;99.90
22337;DHT22;14992;50.844;4.418;2023-09-30T11:19:59;19.80;99.90
22337;DHT22;14992;50.844;4.418;2023-09-30T11:22:28;19.90;99.90
22337;DHT22;14992;50.844;4.418;2023-09-30T11:24:57;19.80;99.90
22337;DHT22;14992;50.844;4.418;2023-09-30T11:27:26;19.90;99.90
22337;DHT22;14992;50.844;4.418;2023-09-30T11:29:54;20.00;99.90
22337;DHT22;14992;50.844;4.418;2023-09-30T11:32:24;20.20;99.90
22337;DHT22;14992;50.844;4.418;2023-09-30T11:34:56;20.40;99.90
22337;DHT22;14992;50.844;4.418;2023-09-30T11:37:31;20.60;99.90
22337;DHT22;14992;50.844;4.418;2023-09-30T11:40:12;20.60;99.90
22337;DHT22;14992;50.844;4.418;2023-09-30T11:42:42;20.50;99.90
22337;DHT22;14992;50.844;4.418;2023-09-30T11:45:19;20.40;99.90
22337;DHT22;14992;50.844;4.418;2023-09-30T11:47:50;20.50;99.90
22337;DHT22;14992;50.844;4.418;2023-09-30T11:50:21;20.70;99.90
22337;DHT22;14992;50.844;4.418;2023-09-30T11:52:52;20.90;99.90
22337;DHT22;14992;50.844;4.418;2023-09-30T11:55:21;20.80;99.90
22337;DHT22;14992;50.844;4.418;2023-09-30T11:57:50;20.90;99.90
22337;DHT22;14992;50.844;4.418;2023-09-30T12:00:22;21.00;99.90
22337;DHT22;14992;50.844;4.418;2023-09-30T12:02:51;20.80;99.90
22337;DHT22;14992;50.844;4.418;2023-09-30T12:05:22;20.90;99.90
22337;DHT22;14992;50.844;4.418;2023-09-30T12:07:51;21.00;99.90
22337;DHT22;14992;50.844;4.418;2023-09-30T12:10:21;20.90;99.90
22337;DHT22;14992;50.844;4.418;2023-09-30T12:12:50;20.90;99.90
22337;DHT22;14992;50.844;4.418;2023-09-30T12:15:19;20.80;99.90
22337;DHT22;14992;50.844;4.418;2023-09-30T12:17:49;20.90;99.90
22337;DHT22;14992;50.844;4.418;2023-09-30T12:20:18;20.90;99.90
22337;DHT22;14992;50.844;4.418;2023-09-30T12:22:50;20.90;99.90
22337;DHT22;14992;50.844;4.418;2023-09-30T12:25:20;20.90;99.90
22337;DHT22;14992;50.844;4.418;2023-09-30T12:27:49;21.10;99.90
22337;DHT22;14992;50.844;4.418;2023-09-30T12:30:18;21.10;99.90
22337;DHT22;14992;50.844;4.418;2023-09-30T12:32:47;21.20;99.90
22337;DHT22;14992;50.844;4.418;2023-09-30T12:35:16;21.40;99.90
22337;DHT22;14992;50.844;4.418;2023-09-30T12:37:45;21.40;99.90
22337;DHT22;14992;50.844;4.418;2023-09-30T12:40:16;21.30;99.90
22337;DHT22;14992;50.844;4.418;2023-09-30T12:42:46;21.40;99.90
22337;DHT22;14992;50.844;4.418;2023-09-30T12:45:15;21.60;99.90
22337;DHT22;14992;50.844;4.418;2023-09-30T12:47:45;21.70;99.90
22337;DHT22;14992;50.844;4.418;2023-09-30T12:50:15;21.60;99.90
22337;DHT22;14992;50.844;4.418;2023-09-30T12:52:44;21.50;99.90
22337;DHT22;14992;50.844;4.418;2023-09-30T12:55:13;21.60;99.90
22337;DHT22;14992;50.844;4.418;2023-09-30T12:57:43;21.60;99.90
22337;DHT22;14992;50.844;4.418;2023-09-30T13:00:13;21.50;99.90
22337;DHT22;14992;50.844;4.418;2023-09-30T13:02:43;21.50;99.90
22337;DHT22;14992;50.844;4.418;2023-09-30T13:05:12;21.60;99.90
22337;DHT22;14992;50.844;4.418;2023-09-30T13:07:41;21.50;99.90
22337;DHT22;14992;50.844;4.418;2023-09-30T13:10:10;21.40;99.90
22337;DHT22;14992;50.844;4.418;2023-09-30T13:12:40;21.50;99.90
22337;DHT22;14992;50.844;4.418;2023-09-30T13:15:11;21.50;99.90
22337;DHT22;14992;50.844;4.418;2023-09-30T13:17:42;21.50;99.90
22337;DHT22;14992;50.844;4.418;2023-09-30T13:20:12;21.40;99.90
22337;DHT22;14992;50.844;4.418;2023-09-30T13:22:41;21.50;99.90
22337;DHT22;14992;50.844;4.418;2023-09-30T13:25:09;21.50;99.90
22337;DHT22;14992;50.844;4.418;2023-09-30T13:27:39;21.70;99.90
22337;DHT22;14992;50.844;4.418;2023-09-30T13:30:10;21.80;99.90
22337;DHT22;14992;50.844;4.418;2023-09-30T13:32:39;21.70;99.90
22337;DHT22;14992;50.844;4.418;2023-09-30T13:35:08;21.60;99.90
22337;DHT22;14992;50.844;4.418;2023-09-30T13:37:37;21.60;99.90
22337;DHT22;14992;50.844;4.418;2023-09-30T13:40:07;21.60;99.90
22337;DHT22;14992;50.844;4.418;2023-09-30T13:42:39;21.70;99.90
22337;DHT22;14992;50.844;4.418;2023-09-30T13:45:12;21.80;99.90
22337;DHT22;14992;50.844;4.418;2023-09-30T13:47:41;21.90;99.90
22337;DHT22;14992;50.844;4.418;2023-09-30T13:50:10;22.00;99.90
22337;DHT22;14992;50.844;4.418;2023-09-30T13:52:38;22.00;99.90
22337;DHT22;14992;50.844;4.418;2023-09-30T13:55:08;22.10;99.90
22337;DHT22;14992;50.844;4.418;2023-09-30T13:57:37;22.10;99.80
22337;DHT22;14992;50.844;4.418;2023-09-30T14:00:07;22.00;98.70
22337;DHT22;14992;50.844;4.418;2023-09-30T14:02:39;22.00;99.90
22337;DHT22;14992;50.844;4.418;2023-09-30T14:05:08;22.00;99.90
22337;DHT22;14992;50.844;4.418;2023-09-30T14:07:38;21.90;99.90
22337;DHT22;14992;50.844;4.418;2023-09-30T14:10:08;22.00;99.90
22337;DHT22;14992;50.844;4.418;2023-09-30T14:12:38;22.00;99.90
22337;DHT22;14992;50.844;4.418;2023-09-30T14:15:09;22.20;99.90
22337;DHT22;14992;50.844;4.418;2023-09-30T14:17:40;22.30;99.60
22337;DHT22;14992;50.844;4.418;2023-09-30T14:20:09;22.40;99.10
22337;DHT22;14992;50.844;4.418;2023-09-30T14:22:40;22.20;99.60
22337;DHT22;14992;50.844;4.418;2023-09-30T14:25:08;22.40;97.60
22337;DHT22;14992;50.844;4.418;2023-09-30T14:27:37;22.40;97.10
22337;DHT22;14992;50.844;4.418;2023-09-30T14:30:08;22.20;94.80
22337;DHT22;14992;50.844;4.418;2023-09-30T14:32:37;22.00;96.00
22337;DHT22;14992;50.844;4.418;2023-09-30T14:35:08;21.90;95.90
22337;DHT22;14992;50.844;4.418;2023-09-30T14:37:37;21.80;96.80
22337;DHT22;14992;50.844;4.418;2023-09-30T14:40:07;21.80;97.20
22337;DHT22;14992;50.844;4.418;2023-09-30T14:42:38;21.70;97.00
22337;DHT22;14992;50.844;4.418;2023-09-30T14:45:09;21.60;96.30
22337;DHT22;14992;50.844;4.418;2023-09-30T14:47:39;21.60;98.30
22337;DHT22;14992;50.844;4.418;2023-09-30T14:50:10;21.60;98.80
22337;DHT22;14992;50.844;4.418;2023-09-30T14:52:39;21.70;97.90
22337;DHT22;14992;50.844;4.418;2023-09-30T14:55:08;21.80;97.60
22337;DHT22;14992;50.844;4.418;2023-09-30T14:57:37;21.80;98.40
22337;DHT22;14992;50.844;4.418;2023-09-30T15:00:07;21.60;98.00
22337;DHT22;14992;50.844;4.418;2023-09-30T15:02:38;21.50;99.00
22337;DHT22;14992;50.844;4.418;2023-09-30T15:05:09;21.50;99.20
22337;DHT22;14992;50.844;4.418;2023-09-30T15:07:38;21.50;98.90
22337;DHT22;14992;50.844;4.418;2023-09-30T15:10:08;21.30;98.70
22337;DHT22;14992;50.844;4.418;2023-09-30T15:12:37;21.30;99.80
22337;DHT22;14992;50.844;4.418;2023-09-30T15:15:07;21.40;99.90
22337;DHT22;14992;50.844;4.418;2023-09-30T15:17:36;21.30;99.60
22337;DHT22;14992;50.844;4.418;2023-09-30T15:20:06;21.40;99.90
22337;DHT22;14992;50.844;4.418;2023-09-30T15:22:37;21.50;99.20
22337;DHT22;14992;50.844;4.418;2023-09-30T15:25:06;21.70;97.00
22337;DHT22;14992;50.844;4.418;2023-09-30T15:27:37;21.70;96.40
22337;DHT22;14992;50.844;4.418;2023-09-30T15:30:06;21.80;97.00
22337;DHT22;14992;50.844;4.418;2023-09-30T15:32:39;21.70;98.30
22337;DHT22;14992;50.844;4.418;2023-09-30T15:35:09;21.50;98.90
22337;DHT22;14992;50.844;4.418;2023-09-30T15:37:39;21.50;99.00
22337;DHT22;14992;50.844;4.418;2023-09-30T15:40:08;21.60;99.00
22337;DHT22;14992;50.844;4.418;2023-09-30T15:42:37;21.60;99.80
22337;DHT22;14992;50.844;4.418;2023-09-30T15:45:08;21.60;99.90
22337;DHT22;14992;50.844;4.418;2023-09-30T15:47:37;21.50;99.90
22337;DHT22;14992;50.844;4.418;2023-09-30T15:50:07;21.50;99.10
22337;DHT22;14992;50.844;4.418;2023-09-30T15:52:36;21.60;98.30